createdAt,value
2018-04-13T00:01:50.731Z,26.83
2018-04-13T00:04:27.065Z,25.43
2018-04-13T00:06:57.169Z,26.63
2018-04-13T00:09:33.335Z,23.67
2018-04-13T00:12:02.062Z,26.73
2018-04-13T00:14:38.131Z,24.93
2018-04-13T00:17:14.073Z,26.47
2018-04-13T00:19:50.380Z,27.60
2018-04-13T00:22:20.426Z,27.10
2018-04-13T00:24:49.362Z,25.67
2018-04-13T00:27:19.076Z,29.80
2018-04-13T00:29:48.022Z,31.43
2018-04-13T00:32:16.945Z,32.70
2018-04-13T00:34:47.228Z,31.47
2018-04-13T00:37:21.709Z,28.60
2018-04-13T00:39:50.656Z,26.87
2018-04-13T00:42:26.872Z,29.53
2018-04-13T00:44:55.824Z,27.07
2018-04-13T00:47:25.512Z,27.10
2018-04-13T00:50:00.258Z,27.63
2018-04-13T00:52:35.153Z,33.30
2018-04-13T00:55:10.066Z,32.60
2018-04-13T00:57:44.924Z,27.70
2018-04-13T01:00:20.726Z,29.27
2018-04-13T01:02:56.018Z,27.67
2018-04-13T01:05:32.068Z,25.03
2018-04-13T01:08:01.220Z,25.23
2018-04-13T01:10:30.164Z,27.10
2018-04-13T01:13:05.018Z,25.90
2018-04-13T01:15:35.457Z,24.77
2018-04-13T01:18:04.401Z,28.90
2018-04-13T01:20:39.143Z,29.70
2018-04-13T01:23:08.071Z,27.67
2018-04-13T01:25:36.987Z,31.60
2018-04-13T01:28:12.001Z,26.23
2018-04-13T01:30:46.703Z,31.17
2018-04-13T01:33:16.998Z,25.70
2018-04-13T01:35:45.692Z,29.63
2018-04-13T01:38:14.684Z,25.33
2018-04-13T01:40:49.249Z,26.40
2018-04-13T01:43:19.549Z,28.43
2018-04-13T01:45:49.629Z,28.73
2018-04-13T01:48:19.695Z,28.13
2018-04-13T01:50:49.212Z,29.97
2018-04-13T01:53:18.149Z,28.43
2018-04-13T01:55:47.827Z,28.77
2018-04-13T01:58:18.131Z,29.73
2018-04-13T02:00:46.848Z,27.43
2018-04-13T02:03:15.760Z,25.57
2018-04-13T02:05:44.715Z,26.10
2018-04-13T02:08:19.424Z,28.70
2018-04-13T02:10:49.866Z,26.17
2018-04-13T02:13:20.191Z,30.07
2018-04-13T02:15:48.902Z,31.73
2018-04-13T02:18:18.343Z,32.70
2018-04-13T02:20:48.016Z,31.37
2018-04-13T02:23:18.115Z,35.73
2018-04-13T02:25:47.093Z,38.40
2018-04-13T02:28:16.003Z,36.93
2018-04-13T02:30:44.937Z,34.70
2018-04-13T02:33:26.091Z,36.70
2018-04-13T02:35:55.003Z,35.60
2018-04-13T02:38:30.677Z,41.43
2018-04-13T02:41:11.387Z,38.97
2018-04-13T02:43:40.326Z,44.70
2018-04-13T02:46:15.141Z,39.17
2018-04-13T02:48:44.863Z,40.13
2018-04-13T02:51:13.801Z,41.97
2018-04-13T02:53:43.146Z,41.00
2018-04-13T02:56:12.951Z,40.90
2018-04-13T02:58:42.640Z,53.20
2018-04-13T03:01:11.569Z,45.23
2018-04-13T03:03:40.502Z,41.77
2018-04-13T03:06:09.532Z,41.27
2018-04-13T03:08:44.828Z,41.03
2018-04-13T03:11:13.728Z,48.30
2018-04-13T03:13:48.595Z,41.67
2018-04-13T03:16:17.508Z,41.07
2018-04-13T03:18:47.193Z,44.53
2018-04-13T03:21:16.899Z,41.87
2018-04-13T03:23:46.590Z,42.13
2018-04-13T03:26:15.530Z,42.23
2018-04-13T03:28:50.249Z,39.80
2018-04-13T03:31:19.188Z,40.27
2018-04-13T03:33:48.108Z,47.00
2018-04-13T03:36:18.016Z,48.80
2018-04-13T03:41:28.213Z,44.10
2018-04-13T03:44:02.996Z,41.00
2018-04-13T03:46:31.924Z,41.30
2018-04-13T03:49:00.858Z,43.87
2018-04-13T03:51:35.677Z,43.43
2018-04-13T03:54:04.608Z,46.40
2018-04-13T03:56:33.616Z,41.57
2018-04-13T03:59:08.375Z,44.03
2018-04-13T04:01:37.282Z,47.93
2018-04-13T04:04:17.839Z,44.77
2018-04-13T04:06:52.737Z,42.97
2018-04-13T04:09:22.993Z,45.33
2018-04-13T04:11:58.561Z,52.33
2018-04-13T04:14:39.647Z,41.53
2018-04-13T04:17:08.575Z,46.93
2018-04-13T04:19:44.699Z,44.90
2018-04-13T04:22:25.265Z,49.70
2018-04-13T04:25:06.199Z,46.23
2018-04-13T04:27:41.085Z,43.13
2018-04-13T04:30:10.795Z,50.73
2018-04-13T04:32:40.501Z,47.63
2018-04-13T04:35:10.224Z,45.03
2018-04-13T04:37:45.570Z,44.93
2018-04-13T04:40:14.515Z,50.07
2018-04-13T04:42:49.136Z,43.93
2018-04-13T04:45:23.834Z,40.30
2018-04-13T04:47:52.787Z,49.33
2018-04-13T04:50:23.061Z,43.73
2018-04-13T04:52:57.628Z,46.40
2018-04-13T04:55:26.627Z,49.47
2018-04-13T04:57:55.934Z,45.97
2018-04-13T05:00:32.214Z,46.60
2018-04-13T05:03:01.136Z,47.20
2018-04-13T05:05:30.099Z,43.93
2018-04-13T05:07:59.037Z,47.20
2018-04-13T05:10:30.216Z,42.97
2018-04-13T05:13:06.437Z,48.13
2018-04-13T05:15:42.685Z,50.27
2018-04-13T05:18:17.534Z,44.87
2018-04-13T05:20:52.199Z,48.37
2018-04-13T05:23:27.464Z,51.83
2018-04-13T05:25:56.391Z,48.33
2018-04-13T05:28:26.651Z,46.77
2018-04-13T05:30:56.244Z,46.33
2018-04-13T05:33:25.189Z,48.20
2018-04-13T05:35:54.143Z,48.50
2018-04-13T05:38:23.857Z,48.63
2018-04-13T05:40:54.123Z,46.60
2018-04-13T05:43:24.071Z,45.53
2018-04-13T05:45:53.741Z,47.00
2018-04-13T05:48:22.673Z,44.83
2018-04-13T05:50:53.129Z,50.50
2018-04-13T05:53:22.051Z,42.70
2018-04-13T05:55:51.361Z,45.73
2018-04-13T05:58:21.648Z,46.30
2018-04-13T06:01:02.137Z,51.23
2018-04-13T06:03:31.083Z,41.73
2018-04-13T06:06:01.190Z,41.80
2018-04-13T06:08:30.211Z,42.60
2018-04-13T06:11:04.950Z,44.07
2018-04-13T06:13:35.099Z,45.93
2018-04-13T06:16:04.073Z,41.27
2018-04-13T06:18:33.763Z,45.57
2018-04-13T06:21:10.088Z,40.60
2018-04-13T06:23:44.466Z,43.80
2018-04-13T06:26:20.588Z,43.43
2018-04-13T06:28:49.921Z,48.70
2018-04-13T06:31:24.774Z,38.40
2018-04-13T06:33:54.548Z,44.57
2018-04-13T06:36:24.262Z,40.10
2018-04-13T06:38:59.183Z,42.67
2018-04-13T06:41:29.580Z,38.83
2018-04-13T06:44:00.117Z,41.07
2018-04-13T06:46:29.072Z,42.87
2018-04-13T06:48:58.387Z,43.00
2018-04-13T06:51:28.099Z,38.37
2018-04-13T06:54:03.421Z,38.80
2018-04-13T06:56:32.736Z,37.83
2018-04-13T06:59:02.812Z,40.53
2018-04-13T07:01:31.757Z,38.93
2018-04-13T07:04:12.343Z,40.43
2018-04-13T07:06:41.271Z,41.83
2018-04-13T07:09:10.183Z,41.17
2018-04-13T07:11:40.310Z,39.27
2018-04-13T07:14:09.693Z,42.33
2018-04-13T07:16:45.491Z,42.00
2018-04-13T07:19:20.155Z,39.03
2018-04-13T07:21:49.115Z,39.73
2018-04-13T07:24:19.351Z,37.17
2018-04-13T07:26:49.111Z,35.73
2018-04-13T07:29:20.067Z,38.93
2018-04-13T07:31:49.513Z,40.20
2018-04-13T07:34:18.548Z,38.30
2018-04-13T07:36:54.161Z,36.53
2018-04-13T07:39:24.280Z,37.23
2018-04-13T07:41:53.937Z,34.97
2018-04-13T07:44:23.894Z,34.10
2018-04-13T07:46:58.431Z,35.27
2018-04-13T07:49:33.415Z,39.60
2018-04-13T07:52:02.488Z,37.00
2018-04-13T07:54:33.110Z,38.13
2018-04-13T07:57:15.089Z,42.53
2018-04-13T07:59:45.137Z,36.63
2018-04-13T08:02:13.664Z,36.07
2018-04-13T08:04:50.060Z,36.80
2018-04-13T08:07:19.057Z,37.90
2018-04-13T08:09:47.986Z,36.53
2018-04-13T08:12:17.085Z,37.30
2018-04-13T08:14:46.770Z,37.53
2018-04-13T08:17:17.412Z,38.00
2018-04-13T08:19:46.395Z,38.07
2018-04-13T08:22:22.760Z,43.30
2018-04-13T08:24:52.080Z,40.37
2018-04-13T08:27:21.052Z,44.63
2018-04-13T08:29:55.811Z,41.57
2018-04-13T08:32:37.212Z,40.03
2018-04-13T08:35:18.756Z,36.53
2018-04-13T08:37:54.047Z,34.67
2018-04-13T08:40:25.693Z,34.17
2018-04-13T08:42:56.253Z,34.27
2018-04-13T08:45:32.451Z,33.10
2018-04-13T08:48:03.773Z,39.00
2018-04-13T08:50:39.232Z,34.92
2018-04-13T08:53:08.215Z,36.47
2018-04-13T08:55:37.171Z,36.30
2018-04-13T08:58:07.104Z,32.83
2018-04-13T09:00:36.812Z,34.73
2018-04-13T09:03:07.975Z,36.30
2018-04-13T09:08:14.171Z,34.47
2018-04-13T09:10:44.976Z,33.10
2018-04-13T09:13:15.348Z,35.23
2018-04-13T09:15:45.391Z,36.07
2018-04-13T09:18:14.370Z,33.43
2018-04-13T09:20:43.883Z,35.33
2018-04-13T09:23:13.231Z,31.73
2018-04-13T09:25:43.723Z,33.07
2018-04-13T09:28:19.105Z,35.63
2018-04-13T09:30:49.156Z,31.67
2018-04-13T09:33:24.284Z,33.13
2018-04-13T09:35:59.266Z,32.37
2018-04-13T09:38:29.212Z,35.60
2018-04-13T09:41:00.060Z,33.30
2018-04-13T09:43:29.937Z,35.30
2018-04-13T09:45:59.287Z,31.93
2018-04-13T09:48:29.336Z,33.17
2018-04-13T09:50:59.608Z,31.67
2018-04-13T09:53:29.097Z,31.77
2018-04-13T09:55:59.157Z,33.60
2018-04-13T09:58:28.063Z,34.50
2018-04-13T10:01:04.183Z,34.27
2018-04-13T10:03:38.755Z,33.93
2018-04-13T10:06:08.103Z,34.40
2018-04-13T10:08:37.042Z,35.30
2018-04-13T10:11:07.345Z,34.83
2018-04-13T10:13:36.061Z,33.17
2018-04-13T10:16:04.986Z,34.93
2018-04-13T10:18:45.728Z,33.87
2018-04-13T10:21:22.943Z,34.63
2018-04-13T10:24:03.454Z,36.83
2018-04-13T10:26:39.288Z,36.93
2018-04-13T10:29:08.225Z,35.07
2018-04-13T10:31:38.493Z,38.03
2018-04-13T10:34:08.544Z,35.30
2018-04-13T10:36:38.608Z,35.33
2018-04-13T10:39:09.355Z,35.40
2018-04-13T10:41:39.454Z,35.40
2018-04-13T10:44:21.537Z,35.30
2018-04-13T10:46:50.477Z,35.87
2018-04-13T10:49:27.694Z,39.33
2018-04-13T10:51:56.429Z,35.33
2018-04-13T10:54:31.134Z,36.23
2018-04-13T10:57:00.458Z,35.93
2018-04-13T10:59:35.152Z,34.17
2018-04-13T11:02:11.204Z,37.93
2018-04-13T11:04:51.987Z,36.03
2018-04-13T11:07:22.253Z,33.77
2018-04-13T11:09:52.471Z,33.63
2018-04-13T11:12:22.759Z,33.20
2018-04-13T11:14:57.243Z,33.63
2018-04-13T11:17:33.433Z,33.40
2018-04-13T11:26:04.545Z,34.53
2018-04-13T11:28:44.529Z,34.50
2018-04-13T11:31:25.842Z,36.50
2018-04-13T11:34:06.201Z,36.72
2018-04-13T11:36:47.361Z,35.40
2018-04-13T11:39:27.728Z,39.90
2018-04-13T11:42:13.635Z,36.03
2018-04-13T11:44:54.590Z,35.43
2018-04-13T11:47:35.533Z,38.20
2018-04-13T11:50:16.997Z,36.07
2018-04-13T11:53:02.704Z,35.77
2018-04-13T11:55:48.793Z,37.40
2018-04-13T11:58:28.802Z,36.93
2018-04-13T12:01:09.337Z,37.77
2018-04-13T12:03:56.590Z,36.73
2018-04-13T12:06:38.391Z,40.67
2018-04-13T12:09:18.494Z,43.47
2018-04-13T12:11:58.765Z,40.93
2018-04-13T12:14:38.983Z,39.80
2018-04-13T12:17:19.168Z,41.20
2018-04-13T12:19:59.908Z,41.67
2018-04-13T12:22:40.009Z,45.80
2018-04-13T12:25:20.873Z,46.78
2018-04-13T12:28:02.557Z,44.13
2018-04-13T12:30:42.723Z,39.83
2018-04-13T12:33:23.356Z,42.00
2018-04-13T12:36:03.501Z,43.03
2018-04-13T12:38:43.624Z,46.00
2018-04-13T12:41:24.192Z,44.63
2018-04-13T12:44:05.105Z,45.57
2018-04-13T12:46:45.216Z,43.20
2018-04-13T12:49:26.407Z,43.97
2018-04-13T12:52:07.123Z,44.03
2018-04-13T12:54:47.901Z,44.63
2018-04-13T12:57:27.651Z,47.93
2018-04-13T13:00:07.624Z,45.57
2018-04-13T13:02:47.592Z,43.87
2018-04-13T13:05:27.704Z,41.87
2018-04-13T13:08:07.862Z,49.60
2018-04-13T13:10:48.496Z,50.57
2018-04-13T13:13:28.658Z,44.33
2018-04-13T13:16:10.377Z,42.50
2018-04-13T13:18:50.395Z,45.70
2018-04-13T13:21:31.157Z,44.27
2018-04-13T13:24:12.127Z,44.47
2018-04-13T13:26:52.338Z,46.90
2018-04-13T13:29:32.490Z,44.20
2018-04-13T13:32:12.475Z,44.63
2018-04-13T13:34:52.616Z,42.73
2018-04-13T13:37:32.693Z,49.57
2018-04-13T13:40:13.638Z,44.23
2018-04-13T13:42:54.980Z,49.60
2018-04-13T13:45:35.650Z,48.60
2018-04-13T13:48:16.465Z,55.77
2018-04-13T13:50:56.590Z,45.27
2018-04-13T13:53:37.403Z,49.50
2018-04-13T13:56:17.769Z,42.70
2018-04-13T13:58:58.282Z,47.70
2018-04-13T14:01:38.433Z,50.73
2018-04-13T14:04:18.499Z,46.63
2018-04-13T14:06:58.635Z,52.30
2018-04-13T14:09:39.425Z,45.87
2018-04-13T14:12:20.539Z,57.13
2018-04-13T14:15:00.702Z,49.03
2018-04-13T14:17:41.675Z,51.00
2018-04-13T14:20:22.949Z,49.70
2018-04-13T14:23:04.369Z,54.37
2018-04-13T14:25:46.005Z,49.50
2018-04-13T14:28:27.538Z,57.83
2018-04-13T14:31:07.412Z,54.90
2018-04-13T14:33:47.572Z,53.70
2018-04-13T14:36:28.934Z,55.53
2018-04-13T14:39:10.109Z,52.87
2018-04-13T14:41:50.053Z,63.30
2018-04-13T14:44:31.750Z,54.57
2018-04-13T14:47:13.089Z,54.73
2018-04-13T14:49:54.426Z,56.87
2018-04-13T14:52:35.651Z,54.60
2018-04-13T14:55:15.731Z,58.80
2018-04-13T14:57:56.559Z,55.27
2018-04-13T15:00:37.975Z,54.03
2018-04-13T15:03:18.077Z,65.40
2018-04-13T15:05:58.879Z,53.77
2018-04-13T15:08:38.875Z,58.00
2018-04-13T15:11:19.040Z,57.97
2018-04-13T15:13:59.425Z,57.20
2018-04-13T15:16:41.015Z,60.80
2018-04-13T15:19:22.501Z,66.27
2018-04-13T15:22:04.901Z,59.10
2018-04-13T15:24:44.935Z,62.23
2018-04-13T15:27:26.559Z,61.97
2018-04-13T15:30:06.551Z,58.33
2018-04-13T15:32:46.637Z,60.23
2018-04-13T15:35:26.651Z,58.90
2018-04-13T15:38:07.102Z,57.87
2018-04-13T15:40:47.269Z,57.67
2018-04-13T15:43:27.446Z,58.00
2018-04-13T15:46:07.913Z,55.80
2018-04-13T15:48:48.193Z,58.40
2018-04-13T15:51:28.628Z,57.07
2018-04-13T15:54:10.194Z,57.80
2018-04-13T15:56:51.608Z,56.33
2018-04-13T15:59:31.754Z,64.77
2018-04-13T16:02:11.806Z,59.07
2018-04-13T16:04:51.799Z,62.37
2018-04-13T16:07:33.302Z,56.97
2018-04-13T16:10:14.259Z,65.03
2018-04-13T16:12:55.666Z,58.17
2018-04-13T16:15:35.827Z,63.27
2018-04-13T16:18:16.027Z,58.83
2018-04-13T16:20:56.586Z,62.17
2018-04-13T16:23:36.825Z,69.03
2018-04-13T16:26:16.998Z,61.57
2018-04-13T16:28:58.478Z,59.93
2018-04-13T16:31:39.777Z,63.57
2018-04-13T16:34:21.399Z,59.67
2018-04-13T16:37:01.484Z,59.17
2018-04-13T16:39:42.938Z,60.60
2018-04-13T16:42:24.520Z,68.23
2018-04-13T16:45:04.506Z,67.93
2018-04-13T16:47:44.663Z,58.27
2018-04-13T16:50:25.608Z,57.50
2018-04-13T16:53:06.544Z,57.23
2018-04-13T16:55:47.544Z,63.50
2018-04-13T16:58:27.841Z,61.47
2018-04-13T17:01:07.943Z,65.70
2018-04-13T17:03:49.138Z,58.93
2018-04-13T17:06:30.655Z,64.23
2018-04-13T17:09:11.414Z,61.40
2018-04-13T17:11:53.030Z,63.57
2018-04-13T17:14:33.233Z,59.20
2018-04-13T17:17:13.433Z,61.73
2018-04-13T17:19:53.862Z,66.60
2018-04-13T17:22:35.203Z,61.27
2018-04-13T17:25:04.005Z,59.27
2018-04-13T17:27:32.932Z,71.43
2018-04-13T17:30:02.258Z,69.77
2018-04-13T17:32:31.201Z,62.80
2018-04-13T17:35:01.635Z,67.57
2018-04-13T17:37:30.993Z,61.27
2018-04-13T17:39:59.931Z,65.37
2018-04-13T17:42:30.006Z,73.63
2018-04-13T17:44:58.968Z,68.30
2018-04-13T17:47:28.295Z,70.03
2018-04-13T17:49:57.625Z,72.57
2018-04-13T17:52:27.705Z,74.63
2018-04-13T17:54:56.647Z,67.87
2018-04-13T17:57:25.621Z,73.60
2018-04-13T17:59:54.561Z,80.30
2018-04-13T18:02:24.976Z,73.07
2018-04-13T18:04:54.807Z,69.07
2018-04-13T18:07:24.575Z,80.03
2018-04-13T18:09:54.319Z,70.77
2018-04-13T18:12:24.605Z,66.47
2018-04-13T18:14:54.956Z,73.57
2018-04-13T18:17:24.668Z,78.70
2018-04-13T18:19:53.622Z,77.70
2018-04-13T18:22:23.342Z,71.90
2018-04-13T18:24:53.654Z,76.63
2018-04-13T18:27:22.392Z,76.07
2018-04-13T18:29:51.346Z,82.10
2018-04-13T18:32:21.098Z,76.87
2018-04-13T18:34:50.049Z,77.90
2018-04-13T18:37:19.369Z,79.60
2018-04-13T18:39:49.028Z,77.37
2018-04-13T18:42:19.354Z,84.10
2018-04-13T18:44:50.374Z,75.73
2018-04-13T18:47:19.130Z,79.63
2018-04-13T18:49:49.427Z,73.83
2018-04-13T18:52:19.177Z,72.63
2018-04-13T18:54:48.898Z,77.57
2018-04-13T18:57:19.222Z,69.07
2018-04-13T18:59:48.730Z,71.83
2018-04-13T19:02:17.705Z,72.57
2018-04-13T19:04:48.949Z,73.10
2018-04-13T19:07:17.670Z,69.37
2018-04-13T19:09:46.631Z,75.80
2018-04-13T19:12:15.609Z,68.77
2018-04-13T19:14:44.607Z,67.90
2018-04-13T19:17:14.921Z,80.33
2018-04-13T19:19:43.706Z,77.30
2018-04-13T19:22:12.688Z,77.43
2018-04-13T19:24:43.002Z,77.53
2018-04-13T19:27:13.080Z,84.13
2018-04-13T19:29:41.844Z,85.47
2018-04-13T19:32:10.802Z,82.60
2018-04-13T19:34:42.107Z,100.23
2018-04-13T19:37:12.599Z,91.67
2018-04-13T19:39:42.699Z,95.60
2018-04-13T19:42:12.805Z,95.20
2018-04-13T19:44:43.106Z,94.80
2018-04-13T19:47:12.631Z,107.50
2018-04-13T19:49:41.615Z,108.97
2018-04-13T19:52:12.068Z,112.23
2018-04-13T19:54:41.082Z,108.33
2018-04-13T19:57:10.087Z,100.67
2018-04-13T19:59:39.824Z,112.63
2018-04-13T20:02:08.782Z,117.40
2018-04-13T20:04:38.590Z,134.70
2018-04-13T20:07:08.297Z,115.23
2018-04-13T20:09:39.334Z,103.03
2018-04-13T20:12:08.075Z,110.97
2018-04-13T20:14:37.459Z,118.20
2018-04-13T20:17:06.426Z,128.53
2018-04-13T20:19:36.537Z,117.77
2018-04-13T20:22:05.947Z,124.43
2018-04-13T20:24:36.323Z,122.40
2018-04-13T20:27:06.471Z,118.70
2018-04-13T20:29:35.437Z,130.20
2018-04-13T20:32:05.530Z,132.03
2018-04-13T20:34:35.278Z,122.07
2018-04-13T20:37:05.198Z,133.57
2018-04-13T20:39:34.184Z,125.33
2018-04-13T20:42:03.177Z,138.77
2018-04-13T20:44:32.273Z,123.37
2018-04-13T20:47:02.613Z,135.47
2018-04-13T20:49:31.367Z,121.37
2018-04-13T20:52:00.319Z,125.93
2018-04-13T20:54:29.707Z,128.87
2018-04-13T20:56:58.687Z,122.37
2018-04-13T20:59:27.632Z,133.13
2018-04-13T21:01:57.361Z,127.57
2018-04-13T21:04:26.428Z,134.50
2018-04-13T21:06:56.532Z,113.53
2018-04-13T21:09:25.529Z,116.73
2018-04-13T21:11:55.325Z,105.90
2018-04-13T21:14:24.330Z,107.80
2018-04-13T21:16:53.670Z,106.73
2018-04-13T21:19:24.036Z,108.50
2018-04-13T21:21:53.576Z,105.50
2018-04-13T21:24:23.874Z,103.63
2018-04-13T21:26:54.386Z,98.70
2018-04-13T21:29:24.483Z,107.03
2018-04-13T21:31:55.673Z,113.20
2018-04-13T21:34:25.093Z,112.17
2018-04-13T21:36:54.488Z,104.90
2018-04-13T21:39:24.532Z,88.67
2018-04-13T21:41:53.496Z,109.30
2018-04-13T21:44:23.176Z,107.03
2018-04-13T21:46:52.514Z,112.00
2018-04-13T21:49:21.440Z,105.30
2018-04-13T21:51:50.408Z,107.23
2018-04-13T21:54:19.749Z,114.70
2018-04-13T21:56:48.684Z,117.63
2018-04-13T21:59:18.803Z,110.60
2018-04-13T22:01:47.700Z,98.33
2018-04-13T22:04:17.998Z,102.50
2018-04-13T22:06:47.455Z,100.83
2018-04-13T22:09:16.411Z,105.70
2018-04-13T22:11:46.124Z,105.97
2018-04-13T22:14:27.033Z,96.40
2018-04-13T22:16:56.351Z,110.60
2018-04-13T22:19:25.281Z,93.63
2018-04-13T22:21:54.980Z,77.13
2018-04-13T22:24:24.674Z,98.23
2018-04-13T22:26:53.603Z,93.17
2018-04-13T22:29:23.305Z,87.97
2018-04-13T22:31:52.234Z,81.20
2018-04-13T22:34:21.169Z,86.83
2018-04-13T22:36:50.169Z,87.90
2018-04-13T22:39:19.112Z,91.83
2018-04-13T22:41:48.051Z,73.07
2018-04-13T22:44:19.771Z,91.10
2018-04-13T22:46:48.675Z,86.43
2018-04-13T22:49:17.622Z,93.90
2018-04-13T22:51:46.549Z,81.17
2018-04-13T22:54:15.483Z,87.17
2018-04-13T22:56:44.797Z,93.07
2018-04-13T22:59:13.736Z,81.87
2018-04-13T23:01:42.666Z,67.40
2018-04-13T23:04:11.580Z,76.93
2018-04-13T23:06:40.509Z,77.03
2018-04-13T23:09:09.453Z,65.80
2018-04-13T23:11:39.533Z,81.73
2018-04-13T23:14:08.459Z,74.23
2018-04-13T23:31:32.615Z,88.80
2018-04-13T23:34:02.285Z,90.13
2018-04-13T23:36:31.236Z,70.43
2018-04-13T23:39:00.147Z,89.47
2018-04-13T23:41:29.099Z,101.07
2018-04-13T23:43:58.774Z,81.53
2018-04-13T23:46:27.720Z,90.57
2018-04-13T23:48:56.635Z,86.80
2018-04-13T23:51:25.553Z,95.00
2018-04-13T23:53:54.479Z,95.27
2018-04-13T23:56:24.738Z,94.70
2018-04-13T23:58:54.235Z,93.00
